Meteo Giornale » Osservazioni meteo Gran Bretagna » Southampton-Weather Centre

ore: 15:50 - Osservazioni Meteo Southampton-Weather Centre
Lat. 50° 54' N Lon. 1° 24' W Alt. 9 metri s.l.m.

sereno

21 °C

Sereno

Temp. 24 Ore

9 °C

23 °C

Sud-Ovest

20.3 Km/h

Dew point 12 °C

Umidità 56 %

Visibilità  10 Km

Il sole sorge alle ore 06:19

Il sole tramonta alle ore 19:51

Data e Ora Cielo e Fenomeni T °C DP °C Um. % Pres. hPa Vis. km Vento km/h
Oggi h: 15:50 sereno Sereno 21 12 56 1020 10 SO 20.3
Oggi h: 15:20 sereno Sereno 22 12 53 1020 10 SO 20.3
Oggi h: 14:50 poco_nuvoloso Poco Nuvoloso 23 12 49 1020 10 S/SO 24
Oggi h: 14:20 nuvoloso Nuvoloso 22 10 46 1020 10 SO 18.5
Oggi h: 13:50 nuvoloso Nuvoloso 22 9 43 1020 10 SO 14.8
Oggi h: 13:20 nuvoloso Nuvoloso 20 10 52 1021 10 O/NO 11.1
Oggi h: 12:50 poco_nuvoloso Poco Nuvoloso 22 10 46 1021 10 SO 14.8
Oggi h: 12:20 molto_nuvoloso Molto Nuvoloso 19 11 59 1021 10 O 9.3
Oggi h: 11:50 molto_nuvoloso Molto Nuvoloso 19 10 55 1021 10 O 9.3
Oggi h: 11:20 poco_nuvoloso Poco Nuvoloso 20 11 56 1021 10 O 9.3
Oggi h: 10:50 poco_nuvoloso Poco Nuvoloso 19 12 63 1022 10 O 11.1
Oggi h: 10:20 poco_nuvoloso Poco Nuvoloso 18 12 67 1022 10 O/SO 9.3
Oggi h: 09:50 poco_nuvoloso Poco Nuvoloso 18 12 67 1022 10 O/SO 9.3
Oggi h: 09:20 sereno Sereno 16 12 77 1021 10 N 5.5
Oggi h: 08:50 poco_nuvoloso Poco Nuvoloso 15 12 82 1021 10 N 1.8
Oggi h: 08:20 poco_nuvoloso Poco Nuvoloso 14 12 87 1021 10 N 1.8
Oggi h: 07:50 sereno Sereno 11 11 100 1021 10 N 3.7
Oggi h: 07:20 sereno Sereno 10 9 93 1021 10 N 1.8
Oggi h: 06:50 sereno Sereno 10 9 93 1021 10 N 3.7
Oggi h: 06:20 poco_nuvoloso Poco Nuvoloso 9 9 100 1020 10 N 3.7
Oggi h: 05:50 nuvoloso Nuvoloso 9 9 100 1020 10 N 3.7
Oggi h: 05:20 sereno Sereno 9 9 100 1020 10 N 3.7
Oggi h: 04:50 sereno Sereno 9 9 100 1020 10 N 3.7
Oggi h: 04:20 sereno Sereno 10 9 93 1020 7 N 5.5
Oggi h: 03:50 sereno Sereno 9 9 100 1020 10 N 5.5
Oggi h: 03:20 sereno Sereno 10 9 93 1020 10 N 3.7
Oggi h: 02:50 sereno Sereno 10 9 93 1020 10 N 3.7
Oggi h: 02:20 sereno Sereno 11 10 93 1020 10 N 1.8
Oggi h: 01:50 sereno Sereno 12 10 87 1020 10 N 1.8
Oggi h: 01:20 sereno Sereno 14 10 76 1020 10 N 5.5
Oggi h: 00:50 sereno Sereno 14 10 76 1020 10 N 3.7
Oggi h: 00:20 sereno Sereno 14 10 76 1020 10 O 9.3
Ieri h: 23:50 sereno Sereno 14 10 76 1020 10 O 9.3
Ieri h: 23:20 sereno Sereno 15 10 72 1020 10 O 9.3
Ieri h: 22:50 sereno Sereno 15 10 72 1019 10 O 11.1
Ieri h: 22:20 sereno Sereno 16 10 67 1019 10 O 11.1
Ieri h: 21:50 sereno Sereno 16 10 67 1019 10 O 13
Ieri h: 21:20 sereno Sereno 16 11 72 1019 10 O/NO 13
Ieri h: 20:50 sereno Sereno 17 10 63 1018 10 O/NO 14.8
Ieri h: 20:20 sereno Sereno 17 10 63 1018 10 O 11.1
Ieri h: 19:50 sereno Sereno 18 10 59 1017 10 O 11.1
Ieri h: 19:20 sereno Sereno 19 10 55 1017 10 O 14.8
Ieri h: 18:50 sereno Sereno 20 11 56 1017 10 O 20.3
Ieri h: 18:20 sereno Sereno 20 11 56 1016 10 O 16.7
Ieri h: 17:50 sereno Sereno 22 11 49 1016 10 O/NO 20.3
Ieri h: 17:20 sereno Sereno 22 10 46 1016 10 O 22.2
Ieri h: 16:50 sereno Sereno 23 11 46 1015 10 O 20.3